Time;durP1;ratioP1;P1;durP2;ratioP2;P2;SDS_P1;SDS_P2;PMS_P1;PMS_P2;Temp;Humidity;BMP_temperature;BMP_pressure;BME280_temperature;BME280_humidity;BME280_pressure;Samples;Min_cycle;Max_cycle;Signal;HPM_P1;HPM_P2
2021/03/03 00:00:59;;;;;;;25.87;15.10;;;;;;;4.70;100.00;99724.22;3677685;80;43308;-19
2021/03/03 00:06:05;;;;;;;24.63;14.27;;;;;;;4.63;100.00;99718.38;3675003;79;44066;-19
2021/03/03 00:11:11;;;;;;;26.23;15.07;;;;;;;4.59;100.00;99724.84;3677394;79;43619;-19
2021/03/03 00:16:17;;;;;;;25.37;13.97;;;;;;;4.52;100.00;99726.17;3677943;80;43032;-19
2021/03/03 00:21:23;;;;;;;27.60;14.67;;;;;;;4.43;100.00;99723.56;3677705;80;43355;-19
2021/03/03 00:26:30;;;;;;;23.20;14.23;;;;;;;4.32;100.00;99724.20;3679435;79;43005;-19
2021/03/03 00:31:36;;;;;;;23.57;13.93;;;;;;;4.19;100.00;99723.19;3677454;80;44103;-19
2021/03/03 00:36:42;;;;;;;24.93;14.43;;;;;;;4.11;100.00;99727.17;3677576;80;44191;-19
2021/03/03 00:41:48;;;;;;;27.90;15.10;;;;;;;4.06;100.00;99723.05;3688801;78;43349;-18
2021/03/03 00:46:54;;;;;;;24.73;13.93;;;;;;;3.98;100.00;99725.66;3735029;78;43994;-20
2021/03/03 00:52:01;;;;;;;27.60;14.03;;;;;;;3.92;100.00;99715.81;3734959;78;43677;-19
2021/03/03 00:57:07;;;;;;;26.67;14.50;;;;;;;3.85;100.00;99704.63;3738186;78;43424;-19
2021/03/03 01:02:13;;;;;;;23.00;13.97;;;;;;;3.81;100.00;99709.28;3735848;78;43603;-20
2021/03/03 01:07:19;;;;;;;22.43;13.20;;;;;;;3.70;100.00;99704.54;3735395;78;43959;-19
2021/03/03 01:12:25;;;;;;;24.70;13.90;;;;;;;3.65;100.00;99693.30;3733234;78;43322;-19
2021/03/03 01:17:33;;;;;;;23.50;12.27;;;;;;;3.62;100.00;99689.95;3734781;78;43669;-19
2021/03/03 01:22:39;;;;;;;24.93;13.27;;;;;;;3.51;100.00;99688.74;3739650;78;43705;-19
2021/03/03 01:27:44;;;;;;;18.60;11.10;;;;;;;3.51;100.00;99690.53;3734357;78;43385;-17
2021/03/03 01:32:50;;;;;;;19.77;11.73;;;;;;;3.46;100.00;99685.94;3735158;78;43417;-18
2021/03/03 01:37:56;;;;;;;20.90;11.90;;;;;;;3.39;100.00;99682.76;3735872;78;43720;-19
2021/03/03 01:43:03;;;;;;;17.90;10.97;;;;;;;3.35;100.00;99680.70;3735133;78;43568;-19
2021/03/03 01:48:12;;;;;;;23.13;12.10;;;;;;;3.17;100.00;99662.62;3734779;78;44159;-19
2021/03/03 01:53:17;;;;;;;17.43;11.27;;;;;;;3.17;100.00;99653.76;3735467;78;43395;-19
2021/03/03 01:58:24;;;;;;;21.17;11.73;;;;;;;3.09;100.00;99644.85;3733093;79;43326;-19
2021/03/03 02:03:30;;;;;;;20.30;10.70;;;;;;;3.08;100.00;99636.47;3734982;78;44553;-20
2021/03/03 02:08:39;;;;;;;19.70;11.20;;;;;;;3.06;100.00;99634.36;3735121;79;44078;-20
2021/03/03 02:13:47;;;;;;;17.87;10.17;;;;;;;3.02;100.00;99627.50;3734954;79;44046;-19
2021/03/03 02:18:55;;;;;;;19.23;10.13;;;;;;;3.02;100.00;99627.02;3735848;79;43495;-19
2021/03/03 02:24:07;;;;;;;19.03;10.07;;;;;;;3.02;100.00;99619.03;3734874;78;43718;-19
2021/03/03 02:29:15;;;;;;;18.03;10.77;;;;;;;3.01;100.00;99614.64;3735315;78;43700;-20
2021/03/03 02:34:23;;;;;;;17.10;9.20;;;;;;;2.97;100.00;99614.45;3734635;78;44015;-19
2021/03/03 02:39:30;;;;;;;17.97;10.60;;;;;;;2.93;100.00;99609.77;3735495;79;43683;-19
2021/03/03 02:44:38;;;;;;;13.67;8.83;;;;;;;2.91;100.00;99616.09;3735805;78;44142;-18
2021/03/03 02:49:44;;;;;;;15.90;9.00;;;;;;;2.81;100.00;99609.55;3734772;78;43450;-19
2021/03/03 02:54:50;;;;;;;18.13;9.60;;;;;;;2.75;100.00;99615.61;3733944;78;43677;-18
2021/03/03 02:59:58;;;;;;;17.47;9.73;;;;;;;2.67;100.00;99616.47;3729338;78;43440;-19
2021/03/03 03:05:07;;;;;;;17.10;9.23;;;;;;;2.66;100.00;99617.41;3733907;78;44095;-18
2021/03/03 03:10:16;;;;;;;14.60;8.73;;;;;;;2.57;100.00;99606.80;3734472;78;43353;-19
2021/03/03 03:15:26;;;;;;;14.57;8.63;;;;;;;2.49;100.00;99606.81;3733558;78;44407;-18
2021/03/03 03:20:35;;;;;;;15.57;8.40;;;;;;;2.40;100.00;99608.14;3730634;78;44095;-19
2021/03/03 03:25:43;;;;;;;16.03;9.17;;;;;;;2.32;100.00;99609.86;3734112;78;43991;-19
2021/03/03 03:30:50;;;;;;;16.17;8.23;;;;;;;2.26;100.00;99611.05;3732402;78;44805;-19
2021/03/03 03:35:58;;;;;;;14.67;8.83;;;;;;;2.17;100.00;99615.51;3731937;78;43730;-20
2021/03/03 03:41:06;;;;;;;16.40;8.70;;;;;;;2.09;100.00;99610.58;3733906;78;43741;-19
2021/03/03 03:46:13;;;;;;;15.20;8.67;;;;;;;2.00;100.00;99620.36;3699072;78;44956;-19
2021/03/03 03:51:20;;;;;;;12.50;7.93;;;;;;;1.93;100.00;99622.45;3658331;79;43046;-18
2021/03/03 03:56:26;;;;;;;13.97;7.73;;;;;;;1.89;100.00;99626.67;3689483;79;44054;-18
2021/03/03 04:01:32;;;;;;;12.83;7.67;;;;;;;1.81;100.00;99633.70;3688159;79;44066;-18
2021/03/03 04:06:38;;;;;;;14.63;7.93;;;;;;;1.73;100.00;99635.39;3656431;80;44062;-18
2021/03/03 04:11:44;;;;;;;14.00;7.63;;;;;;;1.69;100.00;99636.50;3688388;79;44052;-18
2021/03/03 04:16:49;;;;;;;14.43;7.63;;;;;;;1.66;100.00;99638.81;3676435;79;43987;-17
2021/03/03 04:21:55;;;;;;;15.93;7.53;;;;;;;1.60;100.00;99648.88;3688106;79;44114;-18
2021/03/03 04:27:01;;;;;;;16.07;8.57;;;;;;;1.53;100.00;99646.53;3620890;80;43810;-18
2021/03/03 04:32:07;;;;;;;13.47;7.00;;;;;;;1.45;100.00;99635.42;3686084;79;43354;-18
2021/03/03 04:37:15;;;;;;;13.87;7.57;;;;;;;1.40;100.00;99642.73;3693145;79;43464;-18
2021/03/03 04:42:21;;;;;;;14.53;7.97;;;;;;;1.35;100.00;99642.11;3658883;79;44205;-18
2021/03/03 04:47:33;;;;;;;12.40;7.53;;;;;;;1.26;100.00;99637.20;3727090;78;44212;-17
2021/03/03 04:52:40;;;;;;;13.07;7.33;;;;;;;1.19;100.00;99637.51;3733228;78;43260;-18
2021/03/03 04:57:46;;;;;;;16.07;7.60;;;;;;;1.20;100.00;99641.89;3734636;78;43699;-18
2021/03/03 05:02:52;;;;;;;12.57;7.20;;;;;;;1.21;100.00;99625.03;3731826;78;43409;-18
2021/03/03 05:07:58;;;;;;;14.37;7.37;;;;;;;1.18;100.00;99621.63;3734560;78;43706;-18
2021/03/03 05:13:04;;;;;;;12.20;6.77;;;;;;;1.16;100.00;99616.89;3733957;78;44115;-18
2021/03/03 05:18:11;;;;;;;12.90;6.93;;;;;;;1.11;100.00;99613.13;3734139;78;44078;-18
2021/03/03 05:23:27;;;;;;;11.90;6.47;;;;;;;1.07;100.00;99609.73;3734549;78;43216;-18
2021/03/03 05:28:34;;;;;;;10.87;6.47;;;;;;;1.07;100.00;99600.92;3734317;78;44007;-18
2021/03/03 05:33:41;;;;;;;13.73;6.97;;;;;;;1.06;100.00;99605.35;3734815;79;43417;-18
2021/03/03 05:38:48;;;;;;;11.60;6.30;;;;;;;1.05;100.00;99601.45;3734961;79;44071;-18
2021/03/03 05:43:54;;;;;;;11.07;6.37;;;;;;;1.00;100.00;99593.70;3735203;78;44049;-18
2021/03/03 05:49:02;;;;;;;12.43;6.57;;;;;;;0.96;100.00;99596.58;3734687;78;44223;-18
2021/03/03 05:54:09;;;;;;;10.60;6.57;;;;;;;0.91;100.00;99579.55;3733836;78;43314;-18
2021/03/03 05:59:17;;;;;;;11.33;6.93;;;;;;;0.92;100.00;99583.92;3735062;79;44003;-18
2021/03/03 06:04:23;;;;;;;11.50;6.03;;;;;;;0.90;100.00;99585.78;3735749;79;44252;-18
2021/03/03 06:09:29;;;;;;;10.80;6.17;;;;;;;0.91;100.00;99586.19;3735119;78;43694;-18
2021/03/03 06:14:36;;;;;;;10.10;6.03;;;;;;;0.86;100.00;99585.07;3734813;79;44046;-18
2021/03/03 06:19:42;;;;;;;12.10;6.70;;;;;;;0.88;100.00;99579.20;3734922;78;42842;-18
2021/03/03 06:24:47;;;;;;;13.70;6.60;;;;;;;0.96;100.00;99581.98;3730669;78;43637;-18
2021/03/03 06:30:04;;;;;;;12.33;6.53;;;;;;;0.98;100.00;99583.63;3734709;79;43404;-18
2021/03/03 06:35:12;;;;;;;10.63;6.57;;;;;;;0.98;100.00;99580.97;3733950;79;43690;-18
2021/03/03 06:40:20;;;;;;;14.00;6.83;;;;;;;1.01;100.00;99576.86;3731306;79;44091;-17
2021/03/03 06:45:31;;;;;;;10.57;6.50;;;;;;;1.04;100.00;99574.06;3727431;78;44352;-17
2021/03/03 06:50:39;;;;;;;13.07;6.73;;;;;;;1.09;100.00;99575.17;3657519;79;43540;-17
2021/03/03 06:55:47;;;;;;;11.87;6.17;;;;;;;1.14;100.00;99566.98;3687175;79;43032;-17
2021/03/03 07:00:53;;;;;;;14.10;6.83;;;;;;;1.21;100.00;99570.61;3659028;79;44223;-18
2021/03/03 07:06:00;;;;;;;12.33;6.37;;;;;;;1.30;100.00;99569.77;3692661;79;43153;-18
2021/03/03 07:11:20;;;;;;;13.43;6.50;;;;;;;1.37;100.00;99574.70;3689594;79;43672;-18
2021/03/03 07:16:25;;;;;;;10.20;6.17;;;;;;;1.49;100.00;99570.58;3691982;79;43680;-17
2021/03/03 07:21:39;;;;;;;11.80;7.07;;;;;;;1.60;100.00;99586.45;3687837;79;43457;-18
2021/03/03 07:26:45;;;;;;;12.00;6.47;;;;;;;1.75;100.00;99580.39;3656010;79;43420;-18
2021/03/03 07:31:53;;;;;;;12.53;6.73;;;;;;;1.91;100.00;99584.94;3696600;79;44034;-18
2021/03/03 07:37:01;;;;;;;13.17;7.00;;;;;;;2.07;100.00;99572.57;3688793;79;44042;-18
2021/03/03 07:42:10;;;;;;;13.50;7.03;;;;;;;2.23;100.00;99565.14;3649782;79;43503;-18
2021/03/03 07:47:18;;;;;;;16.63;7.30;;;;;;;2.37;100.00;99570.61;3694423;79;44047;-18
2021/03/03 07:52:26;;;;;;;12.07;7.07;;;;;;;2.47;100.00;99560.31;3660091;79;43479;-18
2021/03/03 07:57:34;;;;;;;13.10;6.87;;;;;;;2.67;100.00;99560.59;3624514;80;44011;-18
2021/03/03 08:02:47;;;;;;;13.97;6.80;;;;;;;2.84;100.00;99561.48;3689287;79;43399;-18
2021/03/03 08:08:23;;;;;;;13.80;7.03;;;;;;;3.11;100.00;99553.77;3660106;79;43692;-19
2021/03/03 08:13:35;;;;;;;13.40;7.70;;;;;;;3.41;100.00;99560.95;3688705;79;44066;-18
2021/03/03 08:18:51;;;;;;;14.80;8.20;;;;;;;3.81;100.00;99565.81;3655497;81;43997;-18
2021/03/03 08:23:58;;;;;;;14.33;7.70;;;;;;;3.96;100.00;99580.89;3689242;79;43656;-18
2021/03/03 08:29:29;;;;;;;17.13;9.03;;;;;;;4.24;100.00;99571.25;3656290;80;43502;-18
2021/03/03 08:34:52;;;;;;;15.00;7.67;;;;;;;4.46;100.00;99572.61;3688965;79;44911;-18
2021/03/03 08:39:59;;;;;;;12.83;8.03;;;;;;;4.83;100.00;99565.45;3687534;79;44028;-18
2021/03/03 08:45:15;;;;;;;18.30;8.83;;;;;;;5.11;100.00;99571.73;3656008;79;44047;-18
2021/03/03 08:50:45;;;;;;;13.50;8.17;;;;;;;5.28;100.00;99567.97;3740329;78;43380;-18
2021/03/03 08:55:55;;;;;;;14.90;8.23;;;;;;;5.43;100.00;99564.31;3741653;78;43689;-18
2021/03/03 09:01:01;;;;;;;13.50;8.90;;;;;;;5.74;100.00;99564.11;3740495;78;43439;-19
2021/03/03 09:06:09;;;;;;;15.37;8.20;;;;;;;5.85;100.00;99561.08;3742001;78;43056;-19
2021/03/03 09:11:17;;;;;;;14.27;8.57;;;;;;;6.04;100.00;99560.34;3741609;78;43384;-18
2021/03/03 09:16:23;;;;;;;15.63;8.77;;;;;;;6.26;100.00;99556.58;3742174;78;43717;-19
2021/03/03 09:21:31;;;;;;;18.00;8.67;;;;;;;6.47;100.00;99552.91;3742360;78;44071;-18
2021/03/03 09:26:38;;;;;;;14.83;8.97;;;;;;;6.60;100.00;99549.36;3737858;78;44479;-18
2021/03/03 09:31:45;;;;;;;15.63;8.70;;;;;;;6.74;100.00;99551.06;3744244;78;44051;-19
2021/03/03 09:37:00;;;;;;;14.07;8.53;;;;;;;7.01;100.00;99534.83;3742617;78;43745;-18
2021/03/03 09:42:08;;;;;;;13.90;8.83;;;;;;;7.28;100.00;99534.28;3742225;78;43396;-18
2021/03/03 09:47:24;;;;;;;13.43;8.23;;;;;;;7.37;97.81;99531.77;3738685;78;43684;-18
2021/03/03 09:52:38;;;;;;;14.70;8.50;;;;;;;7.51;100.00;99528.08;3730157;78;75275;-18
2021/03/03 09:57:47;;;;;;;15.07;8.53;;;;;;;7.66;98.89;99534.58;3735902;78;43360;-19
2021/03/03 10:02:54;;;;;;;18.63;9.13;;;;;;;7.78;94.54;99531.48;3735580;78;43685;-18
2021/03/03 10:08:02;;;;;;;14.43;9.20;;;;;;;7.87;93.52;99537.48;3734552;78;75413;-19
2021/03/03 10:13:10;;;;;;;14.47;8.83;;;;;;;8.02;95.47;99533.64;3732929;79;75471;-19
2021/03/03 10:18:16;;;;;;;15.87;9.17;;;;;;;8.13;95.84;99526.58;3656155;80;43750;-19
2021/03/03 10:23:24;;;;;;;15.38;9.15;;;;;;;8.32;91.70;99525.52;3735114;78;43682;-19
2021/03/03 10:28:31;;;;;;;15.00;9.30;;;;;;;8.52;88.64;99521.80;3735653;79;43948;-18
2021/03/03 10:33:38;;;;;;;16.63;10.03;;;;;;;8.68;92.31;99528.16;3734705;78;43041;-18
2021/03/03 10:38:47;;;;;;;16.45;9.45;;;;;;;8.84;92.88;99531.81;3736090;78;44055;-18
2021/03/03 10:43:54;;;;;;;15.98;8.88;;;;;;;9.12;93.63;99529.57;3734991;78;44035;-18
2021/03/03 10:49:13;;;;;;;15.57;9.53;;;;;;;9.36;93.04;99521.34;3733343;78;75349;-18
2021/03/03 10:54:30;;;;;;;18.10;10.13;;;;;;;9.60;93.32;99521.64;3734909;78;44007;-18
2021/03/03 10:59:38;;;;;;;21.63;10.30;;;;;;;9.75;92.84;99510.08;3735443;78;77346;-18
2021/03/03 11:04:45;;;;;;;17.03;9.30;;;;;;;9.96;90.88;99502.03;3734246;78;75949;-18
2021/03/03 11:09:53;;;;;;;15.03;9.03;;;;;;;10.13;91.20;99497.02;3734847;78;44771;-19
2021/03/03 11:14:59;;;;;;;16.75;9.50;;;;;;;10.29;87.38;99492.03;3735780;78;43313;-18
2021/03/03 11:20:08;;;;;;;13.00;8.30;;;;;;;10.46;89.18;99489.75;3730394;78;43687;-19
2021/03/03 11:25:16;;;;;;;16.90;8.60;;;;;;;10.58;86.10;99483.28;3728884;78;44143;-18
2021/03/03 11:30:22;;;;;;;12.68;8.00;;;;;;;10.75;85.11;99469.66;3744431;78;43320;-18
2021/03/03 11:35:28;;;;;;;15.03;8.35;;;;;;;10.83;81.92;99464.91;3736767;78;43358;-19
2021/03/03 11:40:35;;;;;;;14.30;8.73;;;;;;;10.99;83.94;99460.84;3740133;78;43413;-19
2021/03/03 11:45:41;;;;;;;15.05;8.25;;;;;;;11.07;82.46;99460.52;3741838;78;44051;-19
2021/03/03 11:50:47;;;;;;;14.45;8.13;;;;;;;11.25;81.14;99459.81;3719643;78;43594;-18
2021/03/03 11:55:53;;;;;;;16.62;8.35;;;;;;;11.37;77.38;99449.25;3615102;80;43329;-18
2021/03/03 12:00:59;;;;;;;13.75;7.90;;;;;;;11.61;78.56;99433.12;3704745;79;43685;-19
2021/03/03 12:06:06;;;;;;;14.43;8.33;;;;;;;11.82;79.09;99433.45;3656726;79;43734;-18
2021/03/03 12:11:14;;;;;;;12.60;7.20;;;;;;;11.95;73.74;99417.80;3698895;79;44077;-19
2021/03/03 12:16:21;;;;;;;12.30;7.78;;;;;;;12.17;74.44;99410.41;3611593;80;43427;-18
2021/03/03 12:21:29;;;;;;;12.70;7.53;;;;;;;12.43;74.68;99402.48;3705240;79;43999;-19
2021/03/03 12:26:36;;;;;;;13.08;7.22;;;;;;;12.66;73.99;99395.80;3614657;80;44149;-18
2021/03/03 12:31:42;;;;;;;13.38;7.67;;;;;;;12.88;71.18;99385.92;3696966;79;44049;-19
2021/03/03 12:36:49;;;;;;;14.50;8.30;;;;;;;12.92;65.48;99373.80;3618003;80;44006;-18
2021/03/03 12:41:56;;;;;;;11.28;7.42;;;;;;;13.01;66.25;99380.16;3712328;79;44496;-19
2021/03/03 12:47:04;;;;;;;13.85;7.50;;;;;;;13.25;67.44;99361.10;3617715;80;44058;-19
2021/03/03 12:52:10;;;;;;;12.75;7.53;;;;;;;13.37;64.85;99353.58;3701999;79;44003;-19
2021/03/03 12:57:16;;;;;;;14.07;7.78;;;;;;;13.66;62.14;99349.27;3702097;79;44033;-19
2021/03/03 13:02:22;;;;;;;13.22;7.50;;;;;;;13.86;63.29;99344.49;3655617;79;43390;-19
2021/03/03 13:07:29;;;;;;;12.75;7.10;;;;;;;13.82;60.31;99332.78;3711543;78;43533;-19
2021/03/03 13:12:35;;;;;;;16.30;8.00;;;;;;;13.77;62.81;99329.20;3620012;80;43361;-19
2021/03/03 13:17:41;;;;;;;12.78;7.47;;;;;;;13.77;61.43;99333.27;3694724;79;44093;-19
2021/03/03 13:22:47;;;;;;;16.10;7.50;;;;;;;13.73;56.57;99333.75;3708533;79;43998;-18
2021/03/03 13:27:53;;;;;;;11.85;7.05;;;;;;;13.71;58.21;99326.63;3705915;79;43688;-19
2021/03/03 13:32:59;;;;;;;13.10;6.75;;;;;;;13.73;58.62;99319.69;3620244;80;43941;-19
2021/03/03 13:38:06;;;;;;;14.03;6.70;;;;;;;13.68;59.06;99311.22;3709566;78;42979;-18
2021/03/03 13:43:12;;;;;;;11.00;6.50;;;;;;;13.72;52.81;99300.39;3613582;80;44066;-19
2021/03/03 13:48:20;;;;;;;12.07;6.60;;;;;;;13.78;56.99;99297.05;3660955;79;43472;-20
2021/03/03 13:53:26;;;;;;;11.55;6.53;;;;;;;13.73;53.54;99280.42;3706147;78;43983;-19
2021/03/03 13:58:35;;;;;;;12.80;6.83;;;;;;;13.69;53.92;99281.78;3657692;80;44173;-17
2021/03/03 14:03:40;;;;;;;11.15;6.58;;;;;;;13.72;58.19;99271.95;3699687;79;43432;-18
2021/03/03 14:08:47;;;;;;;13.72;6.17;;;;;;;13.78;57.20;99271.33;3614018;80;44076;-18
2021/03/03 14:13:53;;;;;;;11.03;6.12;;;;;;;14.10;58.51;99264.88;3704764;78;44145;-19
2021/03/03 14:18:59;;;;;;;9.98;6.22;;;;;;;14.35;59.51;99254.95;3616173;80;43405;-19
2021/03/03 14:24:07;;;;;;;10.90;6.33;;;;;;;14.45;59.24;99247.52;3697078;79;43421;-17
2021/03/03 14:29:14;;;;;;;11.48;5.53;;;;;;;14.83;53.86;99247.61;3649567;79;44081;-18
2021/03/03 14:34:20;;;;;;;11.48;5.75;;;;;;;14.86;49.34;99244.56;3701990;79;43341;-18
2021/03/03 14:39:26;;;;;;;9.25;5.25;;;;;;;15.03;52.95;99241.34;3653763;81;44023;-18
2021/03/03 14:44:32;;;;;;;10.23;5.50;;;;;;;15.35;50.88;99228.75;3701585;79;43439;-17
2021/03/03 14:49:40;;;;;;;10.85;5.65;;;;;;;15.45;51.20;99217.71;3626019;79;43727;-18
2021/03/03 14:54:47;;;;;;;9.40;5.33;;;;;;;15.17;50.63;99209.42;3565757;82;43441;-25
2021/03/03 14:59:53;;;;;;;11.43;5.05;;;;;;;15.22;54.51;99199.44;3623711;80;43394;-18
2021/03/03 15:04:59;;;;;;;10.05;4.75;;;;;;;15.21;52.11;99195.02;3626250;80;43928;-18
2021/03/03 15:10:07;;;;;;;11.18;5.22;;;;;;;15.15;51.63;99191.63;3598866;81;44082;-19
2021/03/03 15:15:15;;;;;;;9.70;5.33;;;;;;;15.14;46.95;99184.00;3620632;80;42930;-23
2021/03/03 15:20:21;;;;;;;12.05;5.60;;;;;;;15.34;51.92;99183.13;3627555;80;43685;-22
2021/03/03 15:25:28;;;;;;;8.68;4.65;;;;;;;15.69;50.51;99171.46;3627879;80;43685;-21
2021/03/03 15:30:35;;;;;;;9.58;5.30;;;;;;;15.90;48.74;99171.40;3567017;82;44649;-23
2021/03/03 15:35:41;;;;;;;13.35;5.35;;;;;;;16.09;49.89;99162.45;3620465;80;44555;-22
2021/03/03 15:40:47;;;;;;;14.03;5.33;;;;;;;16.08;50.61;99155.32;3625325;80;43975;-21
2021/03/03 15:45:53;;;;;;;12.93;6.15;;;;;;;16.00;49.59;99147.56;3628999;80;43403;-21
2021/03/03 15:50:59;;;;;;;12.30;5.53;;;;;;;15.79;49.28;99143.23;3624712;80;43364;-22
2021/03/03 15:56:08;;;;;;;10.25;5.60;;;;;;;15.74;48.97;99130.18;3711753;79;43677;-22
2021/03/03 16:01:13;;;;;;;11.08;6.12;;;;;;;15.55;51.45;99126.02;3702909;78;44533;-21
2021/03/03 16:06:19;;;;;;;10.68;6.10;;;;;;;15.38;51.10;99123.36;3611188;80;43494;-21
2021/03/03 16:11:25;;;;;;;11.60;5.95;;;;;;;15.29;52.96;99117.63;3701517;79;44550;-22
2021/03/03 16:16:32;;;;;;;12.13;6.95;;;;;;;15.17;52.88;99112.23;3698163;78;43207;-21
2021/03/03 16:21:38;;;;;;;12.43;6.92;;;;;;;14.98;53.64;99100.76;3613771;82;43347;-21
2021/03/03 16:26:45;;;;;;;12.15;6.28;;;;;;;14.67;52.40;99091.11;3627113;80;44536;-22
2021/03/03 16:31:52;;;;;;;12.93;6.95;;;;;;;14.30;53.93;99097.38;3702550;79;43451;-22
2021/03/03 16:36:59;;;;;;;14.78;7.12;;;;;;;14.09;55.58;99089.23;3657480;79;43526;-20
2021/03/03 16:42:05;;;;;;;14.80;6.62;;;;;;;13.87;54.44;99091.58;3614398;80;44074;-22
2021/03/03 16:47:12;;;;;;;16.15;6.95;;;;;;;13.60;56.66;99092.70;3710460;79;43986;-21
2021/03/03 16:52:18;;;;;;;12.25;7.30;;;;;;;13.10;58.71;99085.69;3638820;80;44478;-22
2021/03/03 16:57:24;;;;;;;14.73;6.90;;;;;;;12.79;60.79;99083.98;3665063;79;44025;-21
2021/03/03 17:02:30;;;;;;;14.55;7.70;;;;;;;12.42;63.39;99081.88;3593492;80;44075;-20
2021/03/03 17:07:37;;;;;;;11.78;6.53;;;;;;;12.05;66.59;99080.20;3592141;82;45062;-21
2021/03/03 17:12:43;;;;;;;12.35;6.92;;;;;;;11.80;67.14;99085.84;3654487;80;44075;-20
2021/03/03 17:17:50;;;;;;;11.83;6.42;;;;;;;11.61;66.81;99084.13;3656674;80;43707;-20
2021/03/03 17:22:56;;;;;;;11.30;5.90;;;;;;;11.33;66.12;99091.73;3665753;80;44047;-20
2021/03/03 17:28:01;;;;;;;10.55;5.53;;;;;;;11.24;65.02;99085.38;3660874;80;43703;-20
2021/03/03 17:33:07;;;;;;;10.93;5.67;;;;;;;11.26;65.03;99090.61;3672227;80;43696;-20
2021/03/03 17:38:14;;;;;;;10.65;5.30;;;;;;;11.22;64.35;99087.89;3664447;80;44435;-20
2021/03/03 17:43:19;;;;;;;10.08;5.78;;;;;;;11.14;64.55;99091.32;3663868;79;44061;-20
2021/03/03 17:48:25;;;;;;;10.18;5.70;;;;;;;11.08;61.65;99088.72;3673641;80;43674;-21
2021/03/03 17:53:31;;;;;;;11.38;6.25;;;;;;;10.99;61.91;99088.75;3666209;80;43313;-21
2021/03/03 17:58:38;;;;;;;13.35;6.58;;;;;;;10.92;61.63;99096.09;3661265;79;44096;-21
2021/03/03 18:03:44;;;;;;;14.53;6.90;;;;;;;10.81;58.64;99092.22;3664012;81;44026;-21
2021/03/03 18:08:50;;;;;;;13.43;6.28;;;;;;;10.72;62.02;99087.20;3664454;81;44017;-21
2021/03/03 18:13:57;;;;;;;10.10;6.60;;;;;;;10.62;60.67;99095.30;3665624;80;44564;-20
2021/03/03 18:19:03;;;;;;;13.93;6.83;;;;;;;10.50;63.58;99093.76;3663977;79;44065;-21
2021/03/03 18:24:11;;;;;;;14.25;8.23;;;;;;;10.37;63.88;99091.34;3663792;81;44021;-21
2021/03/03 18:29:17;;;;;;;19.05;9.43;;;;;;;10.24;64.64;99098.36;3663485;79;44078;-21
2021/03/03 18:34:23;;;;;;;14.43;8.60;;;;;;;10.13;66.87;99093.12;3663428;81;43714;-21
2021/03/03 18:39:33;;;;;;;14.50;8.70;;;;;;;10.04;67.16;99090.80;3661629;81;26709;-17
2021/03/03 18:44:43;;;;;;;14.78;8.43;;;;;;;10.00;66.80;99082.64;3660558;80;44043;-16
2021/03/03 18:49:49;;;;;;;13.50;8.48;;;;;;;9.93;67.44;99089.59;3662034;79;44116;-16
2021/03/03 18:54:55;;;;;;;18.10;9.20;;;;;;;9.70;67.74;99083.12;3635030;80;44224;-15
2021/03/03 19:00:01;;;;;;;16.43;8.90;;;;;;;9.56;68.84;99085.70;3692686;79;43565;-16
2021/03/03 19:05:10;;;;;;;15.03;9.30;;;;;;;9.44;70.46;99079.61;3661807;79;43541;-18
2021/03/03 19:10:19;;;;;;;14.40;9.30;;;;;;;9.30;70.50;99075.95;3691227;79;75559;-16
2021/03/03 19:15:25;;;;;;;22.27;10.72;;;;;;;9.26;71.35;99074.03;3704408;79;44689;-16
2021/03/03 19:20:31;;;;;;;16.53;10.03;;;;;;;9.19;71.16;99073.73;3661270;79;42788;-15
2021/03/03 19:25:39;;;;;;;17.75;10.58;;;;;;;9.13;71.34;99084.17;3715291;78;27769;-17
2021/03/03 19:30:46;;;;;;;20.40;10.85;;;;;;;9.02;72.10;99074.35;3657024;79;43094;-17
2021/03/03 19:35:53;;;;;;;17.33;10.53;;;;;;;8.97;73.31;99069.89;3694447;78;43968;-17
2021/03/03 19:40:59;;;;;;;20.55;10.93;;;;;;;8.87;74.17;99061.30;3694697;79;44061;-16
2021/03/03 19:46:06;;;;;;;18.50;10.93;;;;;;;8.81;74.65;99065.02;3664152;80;77364;-17
2021/03/03 19:51:12;;;;;;;20.20;11.63;;;;;;;8.73;74.96;99060.31;3697327;79;44002;-16
2021/03/03 19:56:18;;;;;;;19.65;11.90;;;;;;;8.65;77.09;99054.25;3663408;79;43472;-17
2021/03/03 20:01:25;;;;;;;20.17;11.10;;;;;;;8.60;78.01;99048.42;3686862;79;43257;-17
2021/03/03 20:06:32;;;;;;;18.42;11.43;;;;;;;8.47;78.87;99045.45;3693013;79;44404;-15
2021/03/03 20:11:39;;;;;;;20.32;11.05;;;;;;;8.41;79.49;99042.44;3690574;79;43766;-15
2021/03/03 20:16:45;;;;;;;19.40;11.70;;;;;;;8.26;80.84;99044.11;3690517;79;43470;-16
2021/03/03 20:21:51;;;;;;;19.60;12.20;;;;;;;8.11;81.91;99051.64;3693208;79;43719;-16
2021/03/03 20:26:57;;;;;;;19.02;11.12;;;;;;;8.01;83.20;99042.16;3689272;79;44654;-15
2021/03/03 20:32:03;;;;;;;20.77;11.97;;;;;;;7.86;84.02;99040.29;3660891;79;44617;-16
2021/03/03 20:37:10;;;;;;;20.20;11.97;;;;;;;7.79;84.56;99037.74;3698696;79;43697;-16
2021/03/03 20:42:16;;;;;;;20.40;12.07;;;;;;;7.64;86.23;99027.81;3690547;79;43690;-19
2021/03/03 20:47:24;;;;;;;21.70;12.55;;;;;;;7.62;86.74;99019.03;3704526;79;44144;-19
2021/03/03 20:52:32;;;;;;;20.07;12.13;;;;;;;7.49;87.63;99018.34;3700247;79;43334;-19
2021/03/03 20:57:38;;;;;;;22.40;12.80;;;;;;;7.35;88.92;99016.81;3678929;79;44213;-18
2021/03/03 21:02:48;;;;;;;23.37;13.13;;;;;;;7.18;89.85;99013.67;3678512;79;43666;-18
2021/03/03 21:07:55;;;;;;;22.10;12.00;;;;;;;7.16;90.29;99011.63;3690874;79;42832;-19
2021/03/03 21:13:01;;;;;;;25.40;13.40;;;;;;;7.05;91.26;99009.81;3678617;79;43489;-19
2021/03/03 21:18:07;;;;;;;20.53;12.90;;;;;;;6.96;91.68;99003.00;3678288;79;43723;-18
2021/03/03 21:23:13;;;;;;;22.13;12.63;;;;;;;6.92;91.97;99003.73;3688579;79;43322;-18
2021/03/03 21:28:21;;;;;;;23.47;12.93;;;;;;;6.83;92.90;99010.67;3679173;79;43693;-18
2021/03/03 21:33:28;;;;;;;24.53;13.23;;;;;;;6.78;92.90;99005.69;3682702;79;43708;-19
2021/03/03 21:38:34;;;;;;;23.97;13.10;;;;;;;6.76;93.49;98998.27;3681917;79;43338;-19
2021/03/03 21:43:40;;;;;;;24.57;13.40;;;;;;;6.67;94.35;98986.11;3680011;79;43677;-19
2021/03/03 21:48:46;;;;;;;21.87;12.87;;;;;;;6.59;95.64;98992.08;3681383;79;44077;-19
2021/03/03 21:53:53;;;;;;;25.60;14.37;;;;;;;6.65;95.12;98999.61;3679253;79;43392;-19
2021/03/03 21:58:59;;;;;;;22.53;13.43;;;;;;;6.65;94.84;98988.89;3689834;79;43473;-19
2021/03/03 22:04:05;;;;;;;24.20;13.63;;;;;;;6.66;94.74;98984.41;3654849;80;43347;-19
2021/03/03 22:09:12;;;;;;;23.13;13.87;;;;;;;6.63;95.11;98985.52;3687610;79;44043;-19
2021/03/03 22:14:18;;;;;;;26.97;14.30;;;;;;;6.61;95.30;98980.77;3693992;79;43731;-19
2021/03/03 22:19:24;;;;;;;25.53;14.93;;;;;;;6.59;95.40;98975.51;3705312;78;44154;-19
2021/03/03 22:24:30;;;;;;;25.37;14.90;;;;;;;6.56;96.30;98965.54;3656146;80;44382;-19
2021/03/03 22:29:37;;;;;;;24.77;14.23;;;;;;;6.51;96.56;98954.36;3686204;79;43512;-19
2021/03/03 22:34:42;;;;;;;27.17;14.93;;;;;;;6.50;96.91;98960.69;3690269;79;43661;-18
2021/03/03 22:39:49;;;;;;;28.20;15.50;;;;;;;6.48;97.34;98953.62;3654873;81;44543;-19
2021/03/03 22:44:56;;;;;;;26.47;15.47;;;;;;;6.46;98.04;98956.91;3694537;79;44344;-19
2021/03/03 22:50:03;;;;;;;28.93;15.13;;;;;;;6.45;98.18;98954.37;3708806;79;44038;-19
2021/03/03 22:55:11;;;;;;;27.53;14.87;;;;;;;6.43;98.91;98957.14;3702437;78;43470;-18
2021/03/03 23:00:20;;;;;;;27.10;16.27;;;;;;;6.43;98.96;98950.45;3721162;78;44032;-19
2021/03/03 23:05:25;;;;;;;29.43;16.73;;;;;;;6.45;98.94;98941.82;3723242;78;43712;-19
2021/03/03 23:10:31;;;;;;;25.10;15.33;;;;;;;6.41;99.37;98943.53;3726260;78;43556;-19
2021/03/03 23:15:37;;;;;;;25.07;14.70;;;;;;;6.38;99.61;98939.28;3729260;78;43506;-19
2021/03/03 23:20:43;;;;;;;26.80;14.77;;;;;;;6.37;99.68;98932.22;3723669;78;43325;-19
2021/03/03 23:25:49;;;;;;;25.87;15.00;;;;;;;6.34;100.00;98929.78;3725806;78;44054;-19
2021/03/03 23:30:57;;;;;;;25.83;14.83;;;;;;;6.31;100.00;98929.55;3723174;78;44038;-18
2021/03/03 23:36:05;;;;;;;25.93;15.70;;;;;;;6.30;100.00;98929.64;3723644;78;44050;-18
2021/03/03 23:41:11;;;;;;;27.80;14.70;;;;;;;6.22;100.00;98927.60;3727798;78;44021;-18
2021/03/03 23:46:17;;;;;;;26.77;15.53;;;;;;;6.26;100.00;98918.84;3726341;78;44055;-18